Time,TemperatureF,DewpointF,PressureIn,WindDirection,WindDirectionDegrees,WindSpeedMPH,WindSpeedGustMPH,Humidity,HourlyPrecipIn,Conditions,Clouds,dailyrainin,SoftwareType,DateUTC
2013-04-03 00:04:00,32.8,17.0,29.96,West,265,6.0,13.0,52,0.00,,,0.00,weatherlink.com 1.10,2013-04-03 04:04:00,
2013-04-03 00:19:00,32.6,17.0,29.96,WNW,282,6.0,15.0,52,0.00,,,0.00,weatherlink.com 1.10,2013-04-03 04:19:00,
2013-04-03 00:34:00,32.6,17.0,29.97,West,265,4.0,13.0,54,0.00,,,0.00,weatherlink.com 1.10,2013-04-03 04:34:00,
2013-04-03 00:49:00,32.6,17.0,29.97,SSW,213,3.0,13.0,54,0.00,,,0.00,weatherlink.com 1.10,2013-04-03 04:49:00,
2013-04-03 01:04:00,32.6,16.0,29.97,SW,227,5.0,14.0,51,0.00,,,0.00,weatherlink.com 1.10,2013-04-03 05:04:00,
2013-04-03 01:19:00,32.4,17.0,29.98,West,280,3.0,13.0,53,0.00,,,0.00,weatherlink.com 1.10,2013-04-03 05:19:00,
2013-04-03 01:34:00,32.5,18.0,29.98,WNW,290,7.0,16.0,55,0.00,,,0.00,weatherlink.com 1.10,2013-04-03 05:34:00,
2013-04-03 01:49:00,32.4,18.0,29.98,West,267,11.0,21.0,55,0.00,,,0.00,weatherlink.com 1.10,2013-04-03 05:49:00,
2013-04-03 02:04:00,32.4,19.0,29.98,NW,311,17.0,22.0,58,0.00,,,0.00,weatherlink.com 1.10,2013-04-03 06:04:00,
2013-04-03 02:19:00,32.4,19.0,29.98,NW,313,16.0,26.0,59,0.00,,,0.00,weatherlink.com 1.10,2013-04-03 06:19:00,
2013-04-03 02:34:00,32.3,18.0,29.98,WSW,256,16.0,19.0,55,0.00,,,0.00,weatherlink.com 1.10,2013-04-03 06:34:00,
2013-04-03 02:49:00,32.2,18.0,29.97,West,263,13.0,19.0,55,0.00,,,0.00,weatherlink.com 1.10,2013-04-03 06:49:00,
2013-04-03 03:04:00,32.1,18.0,29.97,West,261,9.0,21.0,57,0.00,,,0.00,weatherlink.com 1.10,2013-04-03 07:04:00,
2013-04-03 03:19:00,32.0,19.0,29.97,West,275,10.0,20.0,58,0.00,,,0.00,weatherlink.com 1.10,2013-04-03 07:19:00,
2013-04-03 03:34:00,32.0,19.0,29.97,WNW,284,9.0,17.0,58,0.00,,,0.00,weatherlink.com 1.10,2013-04-03 07:34:00,
2013-04-03 03:49:00,31.9,18.0,29.97,WNW,291,13.0,18.0,57,0.00,,,0.00,weatherlink.com 1.10,2013-04-03 07:49:00,
2013-04-03 04:04:00,31.6,18.0,29.97,West,259,6.0,21.0,57,0.00,,,0.00,weatherlink.com 1.10,2013-04-03 08:04:00,
2013-04-03 04:19:00,31.5,17.0,29.98,WNW,294,8.0,16.0,56,0.00,,,0.00,weatherlink.com 1.10,2013-04-03 08:19:00,
2013-04-03 04:34:00,31.5,18.0,29.98,West,275,9.0,19.0,58,0.00,,,0.00,weatherlink.com 1.10,2013-04-03 08:34:00,
2013-04-03 04:49:00,31.7,17.0,29.98,West,276,11.0,27.0,54,0.00,,,0.00,weatherlink.com 1.10,2013-04-03 08:49:00,
2013-04-03 05:04:00,31.7,18.0,29.99,WNW,286,9.0,16.0,58,0.00,,,0.00,weatherlink.com 1.10,2013-04-03 09:04:00,
2013-04-03 05:19:00,31.4,18.0,29.99,WSW,249,12.0,19.0,57,0.00,,,0.00,weatherlink.com 1.10,2013-04-03 09:19:00,
2013-04-03 05:34:00,31.5,18.0,29.99,WNW,294,12.0,23.0,57,0.00,,,0.00,weatherlink.com 1.10,2013-04-03 09:34:00,
2013-04-03 05:50:00,31.1,17.0,30.00,WSW,248,6.0,17.0,57,0.00,,,0.00,weatherlink.com 1.10,2013-04-03 09:50:00,
2013-04-03 06:05:00,31.0,17.0,30.00,WSW,238,12.0,23.0,57,0.00,,,0.00,weatherlink.com 1.10,2013-04-03 10:05:00,
2013-04-03 06:20:00,31.1,19.0,30.01,WNW,282,7.0,20.0,60,0.00,,,0.00,weatherlink.com 1.10,2013-04-03 10:20:00,
2013-04-03 06:35:00,30.6,18.0,30.01,West,263,8.0,17.0,61,0.00,,,0.00,weatherlink.com 1.10,2013-04-03 10:35:00,
2013-04-03 06:50:00,30.6,18.0,30.01,West,274,12.0,14.0,61,0.00,,,0.00,weatherlink.com 1.10,2013-04-03 10:50:00,
2013-04-03 07:05:00,30.4,19.0,30.02,WSW,257,10.0,20.0,62,0.00,,,0.00,weatherlink.com 1.10,2013-04-03 11:05:00,
2013-04-03 07:20:00,30.2,18.0,30.02,SSW,208,16.0,22.0,60,0.00,,,0.00,weatherlink.com 1.10,2013-04-03 11:20:00,
2013-04-03 07:35:00,30.4,19.0,30.03,West,278,13.0,19.0,62,0.00,,,0.00,weatherlink.com 1.10,2013-04-03 11:35:00,
2013-04-03 07:50:00,30.6,17.0,30.04,West,265,12.0,27.0,58,0.00,,,0.00,weatherlink.com 1.10,2013-04-03 11:50:00,
2013-04-03 08:05:00,30.7,19.0,30.03,WNW,282,12.0,21.0,61,0.00,,,0.00,weatherlink.com 1.10,2013-04-03 12:05:00,
2013-04-03 08:20:00,30.8,17.0,30.03,West,278,17.0,28.0,57,0.00,,,0.00,weatherlink.com 1.10,2013-04-03 12:20:00,
2013-04-03 08:35:00,31.2,17.0,30.02,WSW,243,15.0,22.0,56,0.00,,,0.00,weatherlink.com 1.10,2013-04-03 12:35:00,
2013-04-03 08:50:00,31.8,19.0,30.02,West,268,19.0,25.0,60,0.00,,,0.00,weatherlink.com 1.10,2013-04-03 12:50:00,
2013-04-03 09:05:00,31.8,16.0,30.02,West,274,7.0,24.0,52,0.00,,,0.00,weatherlink.com 1.10,2013-04-03 13:05:00,
2013-04-03 09:20:00,32.0,15.0,30.01,WSW,239,16.0,28.0,50,0.00,,,0.00,weatherlink.com 1.10,2013-04-03 13:20:00,
2013-04-03 09:35:00,32.1,16.0,30.01,WSW,239,16.0,24.0,51,0.00,,,0.00,weatherlink.com 1.10,2013-04-03 13:35:00,
2013-04-03 09:50:00,32.5,16.0,30.01,WNW,300,16.0,24.0,50,0.00,,,0.00,weatherlink.com 1.10,2013-04-03 13:50:00,
2013-04-03 10:05:00,32.7,15.0,30.02,West,263,16.0,27.0,49,0.00,,,0.00,weatherlink.com 1.10,2013-04-03 14:05:00,
2013-04-03 10:20:00,33.2,17.0,30.02,West,281,13.0,23.0,52,0.00,,,0.00,weatherlink.com 1.10,2013-04-03 14:20:00,
2013-04-03 10:35:00,33.5,16.0,30.02,SW,230,13.0,25.0,49,0.00,,,0.00,weatherlink.com 1.10,2013-04-03 14:35:00,
2013-04-03 10:50:00,33.9,15.0,30.02,WNW,291,13.0,23.0,47,0.00,,,0.00,weatherlink.com 1.10,2013-04-03 14:50:00,
2013-04-03 11:05:00,34.2,14.0,30.02,WSW,250,17.0,23.0,44,0.00,,,0.00,weatherlink.com 1.10,2013-04-03 15:05:00,
2013-04-03 11:20:00,34.7,16.0,30.02,WNW,303,13.0,25.0,46,0.00,,,0.00,weatherlink.com 1.10,2013-04-03 15:20:00,
2013-04-03 11:35:00,35.1,15.0,30.02,WNW,290,11.0,20.0,44,0.00,,,0.00,weatherlink.com 1.10,2013-04-03 15:35:00,
2013-04-03 11:50:00,35.1,15.0,30.01,West,280,13.0,23.0,44,0.00,,,0.00,weatherlink.com 1.10,2013-04-03 15:50:00,
2013-04-03 12:05:00,36.0,15.0,30.00,WNW,294,17.0,24.0,43,0.00,,,0.00,weatherlink.com 1.10,2013-04-03 16:05:00,
2013-04-03 12:20:00,36.2,14.0,30.00,WNW,297,14.0,21.0,41,0.00,,,0.00,weatherlink.com 1.10,2013-04-03 16:20:00,
2013-04-03 12:35:00,36.5,16.0,30.01,West,272,11.0,22.0,43,0.00,,,0.00,weatherlink.com 1.10,2013-04-03 16:35:00,
2013-04-03 12:50:00,37.0,13.0,30.00,West,262,15.0,21.0,38,0.00,,,0.00,weatherlink.com 1.10,2013-04-03 16:50:00,
2013-04-03 13:05:00,37.5,16.0,30.00,NW,305,14.0,23.0,41,0.00,,,0.00,weatherlink.com 1.10,2013-04-03 17:05:00,
2013-04-03 13:20:00,37.2,14.0,30.00,West,269,12.0,25.0,39,0.00,,,0.00,weatherlink.com 1.10,2013-04-03 17:20:00,
2013-04-03 13:36:00,37.8,16.0,30.00,WNW,284,13.0,22.0,42,0.00,,,0.00,weatherlink.com 1.10,2013-04-03 17:36:00,
2013-04-03 13:51:00,38.3,16.0,30.00,West,274,12.0,23.0,40,0.00,,,0.00,weatherlink.com 1.10,2013-04-03 17:51:00,
2013-04-03 14:06:00,38.2,15.0,30.00,WNW,289,15.0,24.0,39,0.00,,,0.00,weatherlink.com 1.10,2013-04-03 18:06:00,
2013-04-03 14:21:00,38.7,14.0,30.00,West,271,20.0,29.0,37,0.00,,,0.00,weatherlink.com 1.10,2013-04-03 18:21:00,
2013-04-03 14:36:00,39.1,15.0,30.00,WNW,297,15.0,20.0,38,0.00,,,0.00,weatherlink.com 1.10,2013-04-03 18:36:00,
2013-04-03 14:51:00,39.9,15.0,29.99,WNW,285,20.0,24.0,37,0.00,,,0.00,weatherlink.com 1.10,2013-04-03 18:51:00,
2013-04-03 15:21:00,40.4,15.0,29.98,West,278,23.0,27.0,36,0.00,,,0.00,weatherlink.com 1.10,2013-04-03 19:21:00,
2013-04-03 15:36:00,39.8,16.0,29.98,West,271,14.0,27.0,38,0.00,,,0.00,weatherlink.com 1.10,2013-04-03 19:36:00,
2013-04-03 15:51:00,40.1,16.0,29.98,WNW,284,17.0,26.0,38,0.00,,,0.00,weatherlink.com 1.10,2013-04-03 19:51:00,
2013-04-03 16:21:00,40.6,13.0,29.98,West,261,18.0,28.0,33,0.00,,,0.00,weatherlink.com 1.10,2013-04-03 20:21:00,
2013-04-03 16:36:00,40.4,15.0,29.99,WNW,284,16.0,24.0,36,0.00,,,0.00,weatherlink.com 1.10,2013-04-03 20:36:00,
2013-04-03 16:51:00,40.5,17.0,29.99,West,269,12.0,31.0,38,0.00,,,0.00,weatherlink.com 1.10,2013-04-03 20:51:00,
2013-04-03 17:06:00,40.4,17.0,29.99,WNW,284,14.0,27.0,39,0.00,,,0.00,weatherlink.com 1.10,2013-04-03 21:06:00,
2013-04-03 17:21:00,40.2,18.0,30.00,WNW,291,18.0,26.0,40,0.00,,,0.00,weatherlink.com 1.10,2013-04-03 21:21:00,
2013-04-03 17:36:00,40.3,16.0,30.00,WSW,245,14.0,25.0,38,0.00,,,0.00,weatherlink.com 1.10,2013-04-03 21:36:00,
2013-04-03 17:51:00,40.1,16.0,30.01,WSW,243,15.0,25.0,37,0.00,,,0.00,weatherlink.com 1.10,2013-04-03 21:51:00,
2013-04-03 18:06:00,39.7,16.0,30.02,West,263,10.0,26.0,38,0.00,,,0.00,weatherlink.com 1.10,2013-04-03 22:06:00,
2013-04-03 18:21:00,39.8,16.0,30.03,WNW,295,17.0,22.0,38,0.00,,,0.00,weatherlink.com 1.10,2013-04-03 22:21:00,
2013-04-03 18:51:00,39.1,16.0,30.05,West,278,13.0,19.0,39,0.00,,,0.00,weatherlink.com 1.10,2013-04-03 22:51:00,
2013-04-03 19:06:00,38.4,17.0,30.05,WNW,290,18.0,28.0,42,0.00,,,0.00,weatherlink.com 1.10,2013-04-03 23:06:00,
2013-04-03 19:21:00,37.8,16.0,30.06,WSW,257,13.0,25.0,42,0.00,,,0.00,weatherlink.com 1.10,2013-04-03 23:21:00,
2013-04-03 19:36:00,37.4,18.0,30.07,WSW,255,11.0,21.0,46,0.00,,,0.00,weatherlink.com 1.10,2013-04-03 23:36:00,
2013-04-03 19:51:00,37.0,17.0,30.08,West,277,12.0,23.0,45,0.00,,,0.00,weatherlink.com 1.10,2013-04-03 23:51:00,
2013-04-03 20:06:00,36.7,15.0,30.09,West,280,13.0,22.0,42,0.00,,,0.00,weatherlink.com 1.10,2013-04-04 00:06:00,
2013-04-03 20:21:00,36.3,16.0,30.10,West,271,15.0,20.0,44,0.00,,,0.00,weatherlink.com 1.10,2013-04-04 00:21:00,
2013-04-03 20:36:00,36.2,17.0,30.11,NW,311,16.0,22.0,45,0.00,,,0.00,weatherlink.com 1.10,2013-04-04 00:36:00,
2013-04-03 20:52:00,35.7,16.0,30.12,WNW,295,11.0,17.0,44,0.00,,,0.00,weatherlink.com 1.10,2013-04-04 00:52:00,
2013-04-03 21:21:00,35.1,17.0,30.14,West,276,12.0,21.0,47,0.00,,,0.00,weatherlink.com 1.10,2013-04-04 01:21:00,
2013-04-03 21:37:00,34.8,16.0,30.14,West,261,10.0,22.0,47,0.00,,,0.00,weatherlink.com 1.10,2013-04-04 01:37:00,
2013-04-03 21:52:00,34.5,19.0,30.15,West,272,10.0,18.0,53,0.00,,,0.00,weatherlink.com 1.10,2013-04-04 01:52:00,
2013-04-03 22:07:00,34.3,17.0,30.15,West,261,16.0,24.0,50,0.00,,,0.00,weatherlink.com 1.10,2013-04-04 02:07:00,
2013-04-03 22:22:00,34.0,16.0,30.16,West,259,13.0,17.0,48,0.00,,,0.00,weatherlink.com 1.10,2013-04-04 02:22:00,
2013-04-03 22:37:00,33.7,18.0,30.17,NW,313,14.0,19.0,52,0.00,,,0.00,weatherlink.com 1.10,2013-04-04 02:37:00,
2013-04-03 22:52:00,33.5,18.0,30.17,WNW,286,10.0,16.0,54,0.00,,,0.00,weatherlink.com 1.10,2013-04-04 02:52:00,
2013-04-03 23:07:00,33.4,18.0,30.18,WNW,301,12.0,18.0,53,0.00,,,0.00,weatherlink.com 1.10,2013-04-04 03:07:00,
2013-04-03 23:22:00,33.3,18.0,30.18,WNW,287,8.0,18.0,54,0.00,,,0.00,weatherlink.com 1.10,2013-04-04 03:22:00,
2013-04-03 23:37:00,33.2,19.0,30.19,West,281,8.0,16.0,56,0.00,,,0.00,weatherlink.com 1.10,2013-04-04 03:37:00,
2013-04-03 23:52:00,32.9,17.0,30.19,WNW,300,8.0,15.0,53,0.00,,,0.00,weatherlink.com 1.10,2013-04-04 03:52:00,